Dobrodošli na spletni strani vremenske postaje Senovo. Vse informacije so informativnega značaja, saj vremenska postaja ni del državne mreže meteoroloških postaj. AKTUALNIH OBVESTIL NI.


Sneg/Led Od: 23-02-2018 00:00 Do: 23:59 Opozorilo za: Sneg/Led Stopnja: Rumena info button

Pogled proti Armezu več informacij Pogled proti Armezu


Lisca več informacij Lisca


Radar strel več informacij blitzortung!


opozorilo za sneg/led več informacij rain snow radar


Obiščite še:

Template documentation
and downloads

And another site



Weather Underground, zgodovina - Tekstovno

Dnevni povzetek za Januar 5, 2018 Enote:  Metrično    Angleško   Obe
« Predhodni Dan
Naslednji Dan »
Dnevni Tedenski Mesečni Letni Po meri
  Višja: Nižja: Povprečje:
Temperatura: -17.8 °C -16.9 °C -13.9 °C
Točka rosišča: -17.8 °C -17.1 °C -14.5 °C
Vlažnost: Humidity % 80 % 93 %
Hitrost vetra: 0 km/h 0 km/h 2.1 km/h
Sunki vetra: 0 km/h - -
Veter:- - WSW
Zračni tlak: 0 hPa 33924.3 hPa -
Padavine: 0 mm    
Historical Graphs
 
 
Tabelarni podarki za Januar 5, 2018
Čas Temperatura Točka rosišča Zračni tlak Veter Hitrost vetra Sunki vetra Vlažnost Intenziteta padavin (urna)
-17.8 °C -17.8 °C 0 hPa Calm     Humidity % 0 mm
00:02 -16.9 °C -17.1 °C 33958.2 hPa Calm     97 % 0 mm
00:04 -16.8 °C -17.1 °C 33958.2 hPa Calm     97 % 0 mm
00:07 -16.8 °C -17.1 °C 33958.2 hPa Calm     97 % 0 mm
00:10 -16.8 °C -17.1 °C 33958.2 hPa NNW 0.3 km/h 5.6 km/h 97 % 0 mm
00:15 -16.8 °C -17.1 °C 33958.2 hPa ENE 1.6 km/h 6.4 km/h 97 % 0 mm
00:20 -16.8 °C -17 °C 33958.2 hPa SE 1 km/h 6.4 km/h 97 % 0 mm
00:22 -16.8 °C -17 °C 33958.2 hPa SE 0.8 km/h 6.4 km/h 97 % 0 mm
00:27 -16.7 °C -16.9 °C 33958.2 hPa Calm     97 % 0 mm
00:28 -16.7 °C -16.9 °C 33958.2 hPa Calm     97 % 0 mm
00:33 -16.7 °C -16.9 °C 33958.2 hPa Calm     97 % 0 mm
00:37 -16.7 °C -16.9 °C 33958.2 hPa Calm     97 % 0 mm
00:42 -16.7 °C -16.9 °C 33958.2 hPa Calm     97 % 0 mm
00:47 -16.6 °C -16.8 °C 33958.2 hPa Calm     97 % 0 mm
00:52 -16.6 °C -16.8 °C 33958.2 hPa Calm     97 % 0 mm
00:57 -16.6 °C -16.8 °C 33958.2 hPa Calm     97 % 0 mm
01:01 -16.6 °C -16.8 °C 33958.2 hPa Calm     97 % 0 mm
01:06 -16.6 °C -16.8 °C 33958.2 hPa Calm     97 % 0 mm
01:11 -16.5 °C -16.7 °C 33958.2 hPa Calm   2.3 km/h 97 % 0 mm
01:16 -16.4 °C -16.7 °C 33924.3 hPa Calm   2.3 km/h 97 % 0 mm
01:18 -16.4 °C -16.7 °C 33924.3 hPa Calm     97 % 0 mm
01:23 -16.4 °C -16.7 °C 33924.3 hPa Calm     97 % 0 mm
01:28 -16.4 °C -16.6 °C 33924.3 hPa Calm     98 % 0 mm
01:30 -16.4 °C -16.6 °C 33924.3 hPa Calm     98 % 0 mm
01:35 -16.3 °C -16.5 °C 33924.3 hPa Calm     98 % 0 mm
01:40 -16.3 °C -16.5 °C 33924.3 hPa Calm     98 % 0 mm
01:41 -16.3 °C -16.5 °C 33924.3 hPa Calm     98 % 0 mm
01:45 -16.3 °C -16.4 °C 33958.2 hPa Calm     98 % 0 mm
01:50 -16.3 °C -16.4 °C 33958.2 hPa Calm     98 % 0 mm
01:55 -16.2 °C -16.4 °C 33958.2 hPa Calm     98 % 0 mm
02:00 -16.2 °C -16.4 °C 33924.3 hPa Calm     98 % 0 mm
02:02 -16.2 °C -16.3 °C 33924.3 hPa Calm     98 % 0 mm
02:07 -16.2 °C -16.3 °C 33924.3 hPa Calm     98 % 0 mm
02:12 -16.1 °C -16.3 °C 33958.2 hPa Calm     97 % 0 mm
02:14 -16.1 °C -16.3 °C 33958.2 hPa Calm     97 % 0 mm
02:19 -16.1 °C -16.3 °C 33958.2 hPa Calm     97 % 0 mm
02:24 -16.1 °C -16.3 °C 33958.2 hPa Calm     97 % 0 mm
02:29 -16.1 °C -16.3 °C 33958.2 hPa Calm     97 % 0 mm
02:31 -16.1 °C -16.3 °C 33958.2 hPa Calm     97 % 0 mm
02:36 -16.1 °C -16.2 °C 33958.2 hPa Calm     98 % 0 mm
02:37 -16.1 °C -16.2 °C 33958.2 hPa Calm     98 % 0 mm
02:42 -16.1 °C -16.2 °C 33958.2 hPa Calm     98 % 0 mm
02:43 -16.1 °C -16.2 °C 33958.2 hPa Calm     98 % 0 mm
02:48 -16 °C -16.2 °C 33958.2 hPa Calm     98 % 0 mm
02:49 -16 °C -16.2 °C 33958.2 hPa Calm     98 % 0 mm
02:54 -16 °C -16.2 °C 33958.2 hPa SSE 1.3 km/h 12.7 km/h 98 % 0 mm
02:59 -15.9 °C -16.1 °C 33958.2 hPa South 2.1 km/h 12.7 km/h 98 % 0 mm
03:04 -15.9 °C -16.1 °C 33958.2 hPa WNW 1 km/h 5.6 km/h 98 % 0 mm
03:07 -15.9 °C -16.1 °C 33958.2 hPa West 0.8 km/h 5.6 km/h 98 % 0 mm
03:12 -15.8 °C -15.9 °C 33958.2 hPa SSE 2.9 km/h 10.3 km/h 98 % 0 mm
03:17 -15.7 °C -15.9 °C 33924.3 hPa SSE 6.9 km/h 15 km/h 98 % 0 mm
03:22 -15.5 °C -15.7 °C 33924.3 hPa SSE 9 km/h 15 km/h 98 % 0 mm
03:28 -15.3 °C -15.5 °C 33958.2 hPa South 8.5 km/h 15 km/h 98 % 0 mm
03:30 -15.3 °C -15.5 °C 33958.2 hPa South 6.4 km/h 15 km/h 98 % 0 mm
03:35 -15.3 °C -15.5 °C 33958.2 hPa SSW 3.9 km/h 9.8 km/h 98 % 0 mm
03:36 -15.3 °C -15.5 °C 33958.2 hPa SSW 3.4 km/h 9.8 km/h 98 % 0 mm
03:37 -15.3 °C -15.5 °C 33958.2 hPa SSW 3.4 km/h 9.8 km/h 98 % 0 mm
03:42 -15.3 °C -15.5 °C 33992.1 hPa SW 3.7 km/h 8 km/h 98 % 0 mm
03:47 -15.3 °C -15.5 °C 33992.1 hPa WSW 1.6 km/h 8 km/h 98 % 0 mm
03:52 -15.3 °C -15.4 °C 33992.1 hPa Calm     98 % 0 mm
03:57 -15.2 °C -15.4 °C 33992.1 hPa Calm     98 % 0 mm
03:59 -15.2 °C -15.4 °C 33958.2 hPa Calm   6.4 km/h 98 % 0 mm
04:04 -15.3 °C -15.4 °C 33958.2 hPa SW 1 km/h 6.4 km/h 98 % 0 mm
04:07 -15.3 °C -15.4 °C 33958.2 hPa SW 1 km/h 6.4 km/h 98 % 0 mm
04:12 -15.2 °C -15.4 °C 33958.2 hPa WSW 0.8 km/h 8.9 km/h 98 % 0 mm
04:16 -15.2 °C -15.4 °C 33958.2 hPa WSW 0.8 km/h 8.9 km/h 98 % 0 mm
04:21 -15.2 °C -15.4 °C 33958.2 hPa SW 0.5 km/h 2.9 km/h 98 % 0 mm
04:27 -15.2 °C -15.3 °C 33958.2 hPa NW 1.3 km/h 8.9 km/h 98 % 0 mm
04:29 -15.2 °C -15.3 °C 33958.2 hPa NW 1.8 km/h 8.9 km/h 98 % 0 mm
04:34 -15.1 °C -15.2 °C 33958.2 hPa NW 1.6 km/h 6.4 km/h 98 % 0 mm
04:36 -15.1 °C -15.2 °C 33958.2 hPa NW 0.5 km/h 3.4 km/h 98 % 0 mm
04:41 -15 °C -15.2 °C 33958.2 hPa Calm   4.2 km/h 98 % 0 mm
04:46 -14.9 °C -15.1 °C 33958.2 hPa NW 2.1 km/h 8.9 km/h 98 % 0 mm
04:50 -14.9 °C -15.1 °C 33958.2 hPa NW 2.3 km/h 8.9 km/h 98 % 0 mm
04:55 -14.9 °C -15.1 °C 33958.2 hPa WNW 1 km/h 5.1 km/h 98 % 0 mm
05:00 -14.9 °C -15.1 °C 33992.1 hPa NW 1 km/h 7.6 km/h 98 % 0 mm
05:05 -14.9 °C -15.1 °C 33992.1 hPa NW 2.6 km/h 7.6 km/h 98 % 0 mm
05:08 -14.9 °C -15.1 °C 33992.1 hPa NW 2.3 km/h 7.6 km/h 98 % 0 mm
05:13 -14.9 °C -15.1 °C 33992.1 hPa Calm     98 % 0 mm
05:14 -14.9 °C -15.1 °C 33992.1 hPa Calm     98 % 0 mm
05:19 -14.9 °C -15.1 °C 33992.1 hPa Calm   4.2 km/h 98 % 0 mm
05:23 -14.9 °C -15.1 °C 33992.1 hPa WNW 2.3 km/h 8 km/h 98 % 0 mm
05:28 -14.9 °C -15.1 °C 33992.1 hPa WNW 3.1 km/h 8 km/h 98 % 0 mm
05:29 -14.9 °C -15.1 °C 33992.1 hPa WNW 3.1 km/h 8 km/h 98 % 0 mm
05:34 -15 °C -15.2 °C 33992.1 hPa SW 2.6 km/h 7.6 km/h 98 % 0 mm
05:37 -15 °C -15.2 °C 33992.1 hPa SW 2.3 km/h 8.9 km/h 98 % 0 mm
05:42 -15 °C -15.2 °C 33992.1 hPa SW 4.7 km/h 9.3 km/h 98 % 0 mm
05:43 -15 °C -15.2 °C 33992.1 hPa SW 5 km/h 9.3 km/h 98 % 0 mm
05:47 -15.1 °C -15.2 °C 33992.1 hPa SSW 6.9 km/h 9.3 km/h 98 % 0 mm
05:50 -15.1 °C -15.2 °C 33992.1 hPa SSW 6.3 km/h 9.3 km/h 98 % 0 mm
05:55 -15.1 °C -15.2 °C 33992.1 hPa SW 3.7 km/h 9.3 km/h 98 % 0 mm
05:59 -15.1 °C -15.3 °C 33992.1 hPa SW 1.6 km/h 6.9 km/h 98 % 0 mm
06:02 -15.1 °C -15.3 °C 33992.1 hPa Calm     98 % 0 mm
06:07 -15.1 °C -15.3 °C 33992.1 hPa Calm     98 % 0 mm
06:08 -15.1 °C -15.3 °C 33992.1 hPa Calm     98 % 0 mm
06:13 -15.2 °C -15.3 °C 33992.1 hPa Calm     98 % 0 mm
06:14 -15.2 °C -15.3 °C 33992.1 hPa Calm     98 % 0 mm
06:18 -15.2 °C -15.4 °C 33992.1 hPa Calm     98 % 0 mm
06:23 -15.3 °C -15.5 °C 33992.1 hPa Calm     98 % 0 mm
06:28 -15.4 °C -15.6 °C 33992.1 hPa Calm     98 % 0 mm
06:33 -15.4 °C -15.6 °C 33992.1 hPa Calm     98 % 0 mm
06:38 -15.5 °C -15.7 °C 33992.1 hPa Calm     98 % 0 mm
06:40 -15.5 °C -15.7 °C 33992.1 hPa Calm     98 % 0 mm
06:42 -15.6 °C -15.8 °C 33992.1 hPa Calm     98 % 0 mm
06:47 -15.7 °C -15.8 °C 34029.3 hPa Calm     98 % 0 mm
06:51 -15.8 °C -15.9 °C 34029.3 hPa WNW 0.3 km/h 4.2 km/h 98 % 0 mm
06:56 -15.8 °C -15.9 °C 34029.3 hPa WNW 0.3 km/h 4.2 km/h 98 % 0 mm
06:57 -15.8 °C -16 °C 34029.3 hPa WNW 0.3 km/h 4.2 km/h 98 % 0 mm
07:03 -15.9 °C -16.1 °C 34029.3 hPa NW 0.5 km/h 5.6 km/h 98 % 0 mm
07:04 -15.9 °C -16.1 °C 34029.3 hPa NW 0.5 km/h 5.6 km/h 98 % 0 mm
07:09 -15.9 °C -16.1 °C 34029.3 hPa NW 0.5 km/h 5.6 km/h 98 % 0 mm
07:14 -16 °C -16.2 °C 34029.3 hPa Calm     98 % 0 mm
07:19 -16.1 °C -16.2 °C 34029.3 hPa Calm     98 % 0 mm
07:25 -16.1 °C -16.3 °C 34029.3 hPa Calm     98 % 0 mm
07:30 -16.2 °C -16.3 °C 33992.1 hPa Calm     98 % 0 mm
07:31 -16.2 °C -16.3 °C 33992.1 hPa Calm   4.2 km/h 98 % 0 mm
07:35 -16.2 °C -16.4 °C 33992.1 hPa NW 0.3 km/h 4.2 km/h 98 % 0 mm
07:36 -16.2 °C -16.4 °C 33992.1 hPa NW 0.3 km/h 4.2 km/h 98 % 0 mm
07:41 -16.2 °C -16.4 °C 33992.1 hPa North 0.3 km/h   98 % 0 mm
07:42 -16.2 °C -16.4 °C 33992.1 hPa Calm     98 % 0 mm
07:44 -16.3 °C -16.4 °C 33992.1 hPa Calm     98 % 0 mm
07:47 -16.3 °C -16.4 °C 33992.1 hPa Calm   2.9 km/h 98 % 0 mm
07:51 -16.2 °C -16.4 °C 33992.1 hPa Calm   2.9 km/h 98 % 0 mm
07:56 -16.3 °C -16.4 °C 33992.1 hPa Calm   2.9 km/h 98 % 0 mm
07:59 -16.3 °C -16.4 °C 34029.3 hPa WSW 0.5 km/h 6.4 km/h 98 % 0 mm
08:04 -16.3 °C -16.5 °C 34029.3 hPa West 1.3 km/h 6.4 km/h 98 % 0 mm
08:09 -16.3 °C -16.5 °C 34029.3 hPa NNW 0.8 km/h 5.6 km/h 98 % 0 mm
08:11 -16.3 °C -16.5 °C 34029.3 hPa NNW 0.8 km/h 5.6 km/h 98 % 0 mm
08:16 -16.3 °C -16.5 °C 34029.3 hPa Calm     98 % 0 mm
08:18 -16.3 °C -16.5 °C 34029.3 hPa Calm     98 % 0 mm
08:23 -16.4 °C -16.6 °C 34029.3 hPa Calm     98 % 0 mm
08:27 -16.4 °C -16.6 °C 34029.3 hPa Calm     98 % 0 mm
08:32 -16.3 °C -16.5 °C 34063.2 hPa NW 1 km/h 6.4 km/h 98 % 0 mm
08:35 -16.3 °C -16.4 °C 34063.2 hPa NW 1.3 km/h 6.4 km/h 98 % 0 mm
08:45 -16.2 °C -16.4 °C 34063.2 hPa NNW 0.3 km/h 2.9 km/h 98 % 0 mm
08:49 -16.2 °C -16.3 °C 34063.2 hPa Calm   2.9 km/h 98 % 0 mm
08:50 -16.2 °C -16.3 °C 34063.2 hPa Calm     98 % 0 mm
08:55 -16.1 °C -16.3 °C 34063.2 hPa Calm     98 % 0 mm
09:00 -16.1 °C -16.2 °C 34097 hPa Calm     98 % 0 mm
09:01 -16.1 °C -16.2 °C 34097 hPa Calm     98 % 0 mm
09:06 -15.9 °C -16.1 °C 34097 hPa Calm     98 % 0 mm
09:10 -15.9 °C -16.1 °C 34097 hPa Calm     98 % 0 mm
09:15 -15.7 °C -15.9 °C 34097 hPa SE 0.3 km/h 3.4 km/h 98 % 0 mm
09:21 -15.7 °C -15.8 °C 34097 hPa SE 0.3 km/h 3.4 km/h 98 % 0 mm
09:26 -15.6 °C -15.7 °C 34097 hPa SSW 2.1 km/h 9.8 km/h 98 % 0 mm
09:31 -15.4 °C -15.6 °C 34130.9 hPa South 2.9 km/h 9.8 km/h 98 % 0 mm
09:32 -15.4 °C -15.6 °C 34130.9 hPa SE 2.3 km/h 8.9 km/h 98 % 0 mm
09:38 -15.3 °C -15.4 °C 34130.9 hPa SE 1 km/h 4.2 km/h 98 % 0 mm
09:39 -15.2 °C -15.4 °C 34130.9 hPa SE 0.8 km/h 4.2 km/h 98 % 0 mm
09:44 -15.2 °C -15.3 °C 34130.9 hPa Calm   2.3 km/h 98 % 0 mm
09:47 -14.9 °C -15.1 °C 34130.9 hPa Calm     98 % 0 mm
09:52 -14.7 °C -14.9 °C 34130.9 hPa Calm   5.6 km/h 98 % 0 mm
09:54 -14.6 °C -14.8 °C 34130.9 hPa NNW 0.5 km/h 5.6 km/h 98 % 0 mm
09:59 -14.4 °C -14.6 °C 34097 hPa NNW 0.3 km/h 5.6 km/h 98 % 0 mm
10:02 -14.3 °C -14.4 °C 34097 hPa North 0.5 km/h 4.2 km/h 98 % 0 mm
10:05 -14.1 °C -14.3 °C 34097 hPa Calm     98 % 0 mm
10:11 -13.9 °C -14.1 °C 34097 hPa SE 0.3 km/h 6.9 km/h 98 % 0 mm
10:13 -13.5 °C -13.7 °C 34097 hPa WSW 1.6 km/h 14 km/h 98 % 0 mm
10:20 -13.1 °C -13.3 °C 34097 hPa SW 4.3 km/h 14 km/h 98 % 0 mm
10:25 -13 °C -13.2 °C 34097 hPa South 5.6 km/h 14.5 km/h 98 % 0 mm
10:27 -12.9 °C -13.1 °C 34097 hPa South 6.8 km/h 14.5 km/h 98 % 0 mm
10:32 -12.8 °C -13 °C 34097 hPa South 8 km/h 12.7 km/h 98 % 0 mm
10:37 -12.7 °C -12.9 °C 34097 hPa SSW 7.6 km/h 12.7 km/h 98 % 0 mm
10:42 -12.5 °C -12.7 °C 34097 hPa SSW 3.7 km/h 9.8 km/h 98 % 0 mm
10:45 -12.4 °C -12.6 °C 34097 hPa South 1.8 km/h 7.6 km/h 98 % 0 mm
10:48 -12.2 °C -12.4 °C 34097 hPa ESE 1.6 km/h 7.6 km/h 98 % 0 mm
10:54 -12.1 °C -12.2 °C 34097 hPa ENE 2.3 km/h 7.6 km/h 98 % 0 mm
10:59 -11.8 °C -12 °C 34063.2 hPa West 3.9 km/h 15.6 km/h 98 % 0 mm
11:01 -11.8 °C -11.9 °C 34063.2 hPa SW 5.5 km/h 15.6 km/h 98 % 0 mm
11:06 -11.6 °C -11.7 °C 34063.2 hPa SW 9.3 km/h 19.2 km/h 98 % 0 mm
11:11 -11.4 °C -11.6 °C 34063.2 hPa SW 10.3 km/h 19.2 km/h 98 % 0 mm
11:13 -11.4 °C -11.6 °C 34063.2 hPa WSW 10.3 km/h 19.2 km/h 98 % 0 mm
11:18 -11.3 °C -11.4 °C 34063.2 hPa WSW 7.7 km/h 15.6 km/h 98 % 0 mm
11:19 -11.2 °C -11.4 °C 34063.2 hPa WSW 6.9 km/h 14.5 km/h 98 % 0 mm
11:25 -11.1 °C -11.3 °C 34063.2 hPa SW 7.2 km/h 18.7 km/h 98 % 0 mm
11:27 -11.1 °C -11.3 °C 34097 hPa WSW 7.6 km/h 18.7 km/h 98 % 0 mm
11:32 -11 °C -11.2 °C 34097 hPa West 9.7 km/h 19.6 km/h 98 % 0 mm
11:33 -10.9 °C -11.1 °C 34097 hPa West 10.1 km/h 19.6 km/h 98 % 0 mm
11:36 -10.9 °C -11.1 °C 34097 hPa West 10.6 km/h 19.6 km/h 98 % 0 mm
11:41 -10.8 °C -11 °C 34097 hPa WSW 9.7 km/h 16.9 km/h 98 % 0 mm
11:43 -10.8 °C -10.9 °C 34097 hPa WSW 9 km/h 22.5 km/h 98 % 0 mm
11:48 -10.8 °C -11.1 °C 34097 hPa WSW 9.7 km/h 22.5 km/h 97 % 0 mm
11:49 -10.8 °C -11.1 °C 34097 hPa WSW 9.7 km/h 22.5 km/h 97 % 0 mm
11:50 -10.7 °C -11 °C 34097 hPa West 9.8 km/h 22.5 km/h 97 % 0 mm
11:56 -10.6 °C -10.8 °C 34097 hPa WSW 9 km/h 20.3 km/h 97 % 0 mm
12:00 -10.6 °C -10.8 °C 34063.2 hPa SW 11.4 km/h 22.5 km/h 97 % 0 mm
12:01 -10.6 °C -10.9 °C 34063.2 hPa SW 12.2 km/h 26.7 km/h 96 % 0 mm
12:06 -10.6 °C -10.9 °C 34063.2 hPa SW 15.3 km/h 26.7 km/h 96 % 0 mm
12:11 -10.7 °C -11.2 °C 34063.2 hPa SW 13.5 km/h 26.7 km/h 95 % 0 mm
12:15 -10.7 °C -11.2 °C 34097 hPa SW 11.4 km/h 25.4 km/h 95 % 0 mm
12:19 -10.7 °C -11.2 °C 34097 hPa WSW 9.8 km/h 22 km/h 94 % 0 mm
12:24 -10.7 °C -11.2 °C 34097 hPa WSW 9.3 km/h 22 km/h 94 % 0 mm
12:27 -10.7 °C -11.3 °C 34097 hPa WSW 9 km/h 22 km/h 93 % 0 mm
12:32 -10.7 °C -11.4 °C 34097 hPa WSW 10.6 km/h 32.3 km/h 92 % 0 mm
12:37 -10.7 °C -11.5 °C 34097 hPa West 13.2 km/h 32.3 km/h 91 % 0 mm
12:39 -10.7 °C -11.5 °C 34097 hPa WSW 13.7 km/h 24.8 km/h 91 % 0 mm
12:44 -10.7 °C -11.6 °C 34130.9 hPa WSW 10.1 km/h 20.3 km/h 90 % 0 mm
12:48 -10.7 °C -11.7 °C 34130.9 hPa WSW 8 km/h 16.9 km/h 89 % 0 mm
12:49 -10.7 °C -11.7 °C 34130.9 hPa WSW 8.5 km/h 19.2 km/h 89 % 0 mm
12:54 -10.7 °C -11.8 °C 34130.9 hPa WSW 9 km/h 19.2 km/h 88 % 0 mm
12:59 -10.8 °C -11.9 °C 34097 hPa WSW 11.4 km/h 22 km/h 87 % 0 mm
13:01 -10.8 °C -11.9 °C 34097 hPa WSW 10.9 km/h 22 km/h 87 % 0 mm
13:06 -10.8 °C -12.1 °C 34097 hPa WSW 10.6 km/h 22 km/h 85 % 0 mm
13:07 -10.8 °C -12.1 °C 34097 hPa WSW 9.3 km/h 19.2 km/h 85 % 0 mm
13:12 -10.8 °C -12.2 °C 34097 hPa SW 6.8 km/h 15.6 km/h 85 % 0 mm
13:17 -10.9 °C -12.3 °C 34097 hPa West 7.6 km/h 15.6 km/h 84 % 0 mm
13:20 -10.9 °C -12.3 °C 34097 hPa West 8.2 km/h 15.6 km/h 84 % 0 mm
13:25 -10.9 °C -12.5 °C 34097 hPa West 8 km/h 16.9 km/h 83 % 0 mm
13:28 -10.9 °C -12.5 °C 34130.9 hPa West 9.7 km/h 20.9 km/h 83 % 0 mm
13:33 -10.9 °C -12.5 °C 34130.9 hPa West 10.1 km/h 20.9 km/h 83 % 0 mm
13:35 -11 °C -12.7 °C 34130.9 hPa WSW 9.8 km/h 20.9 km/h 82 % 0 mm
13:40 -11 °C -12.7 °C 34130.9 hPa WSW 6.9 km/h 16.3 km/h 82 % 0 mm
13:45 -11 °C -12.7 °C 34097 hPa West 5.6 km/h 11.6 km/h 82 % 0 mm
13:46 -11 °C -12.7 °C 34097 hPa West 5.6 km/h 11.6 km/h 82 % 0 mm
13:51 -11.1 °C -12.7 °C 34097 hPa WNW 6.4 km/h 16.3 km/h 82 % 0 mm
13:56 -11.1 °C -12.8 °C 34097 hPa WNW 5.6 km/h 16.3 km/h 81 % 0 mm
14:00 -11.1 °C -12.8 °C 34097 hPa NW 4.7 km/h 16.3 km/h 81 % 0 mm
14:05 -11.1 °C -12.9 °C 34097 hPa SW 2.6 km/h 15 km/h 81 % 0 mm
14:10 -11.1 °C -12.9 °C 34097 hPa SW 5 km/h 15 km/h 81 % 0 mm
14:13 -11.1 °C -12.9 °C 34097 hPa SW 6.8 km/h 15 km/h 81 % 0 mm
14:19 -11.2 °C -12.9 °C 34097 hPa WSW 6.8 km/h 12.7 km/h 81 % 0 mm
14:24 -11.2 °C -12.9 °C 34097 hPa West 5.1 km/h 12.7 km/h 81 % 0 mm
14:29 -11.2 °C -12.9 °C 34097 hPa West 6.3 km/h 14.5 km/h 81 % 0 mm
14:32 -11.2 °C -13.1 °C 34097 hPa WNW 6.4 km/h 14.5 km/h 80 % 0 mm
14:34 -11.2 °C -13.1 °C 34097 hPa West 6.8 km/h 14.5 km/h 80 % 0 mm
14:39 -11.3 °C -13.1 °C 34097 hPa WNW 6.3 km/h 14 km/h 80 % 0 mm
14:41 -11.3 °C -13.1 °C 34097 hPa WNW 6.4 km/h 14 km/h 80 % 0 mm
14:47 -11.3 °C -13.1 °C 34097 hPa WNW 5 km/h 10.3 km/h 80 % 0 mm
14:52 -11.3 °C -13.2 °C 34097 hPa West 5.5 km/h 12.7 km/h 80 % 0 mm
14:57 -11.4 °C -13.2 °C 34097 hPa West 6.4 km/h 12.7 km/h 80 % 0 mm
15:02 -11.4 °C -13.3 °C 34097 hPa West 5 km/h 11.1 km/h 80 % 0 mm
15:07 -11.4 °C -13.3 °C 34097 hPa WSW 6.9 km/h 14 km/h 80 % 0 mm
15:12 -11.5 °C -13.3 °C 34130.9 hPa WSW 8.9 km/h 16.3 km/h 80 % 0 mm
15:16 -11.5 °C -13.3 °C 34130.9 hPa SW 6.9 km/h 16.3 km/h 80 % 0 mm
15:21 -11.6 °C -13.4 °C 34130.9 hPa WSW 4.3 km/h 12.2 km/h 80 % 0 mm
15:26 -11.6 °C -13.4 °C 34130.9 hPa WSW 3.7 km/h 12.2 km/h 80 % 0 mm
15:31 -11.7 °C -13.4 °C 34063.2 hPa SW 4.7 km/h 10.3 km/h 81 % 0 mm
15:33 -11.7 °C -13.4 °C 34063.2 hPa SW 4.3 km/h 10.3 km/h 81 % 0 mm
15:38 -11.7 °C -13.4 °C 34063.2 hPa WSW 2.6 km/h 10.3 km/h 81 % 0 mm
15:42 -11.7 °C -13.4 °C 34063.2 hPa East 0.3 km/h 2.3 km/h 81 % 0 mm
15:43 -11.7 °C -13.4 °C 34063.2 hPa Calm   5.6 km/h 81 % 0 mm
15:48 -11.8 °C -13.5 °C 34063.2 hPa SSW 1.3 km/h 6.9 km/h 81 % 0 mm
15:54 -11.8 °C -13.6 °C 34063.2 hPa SW 2.1 km/h 6.9 km/h 81 % 0 mm
15:56 -11.8 °C -13.6 °C 34063.2 hPa SW 1.8 km/h 6.9 km/h 81 % 0 mm
16:01 -11.9 °C -13.5 °C 34097 hPa WSW 0.5 km/h 5.1 km/h 82 % 0 mm
16:02 -11.9 °C -13.5 °C 34097 hPa WSW 0.5 km/h 5.1 km/h 82 % 0 mm
16:08 -11.9 °C -13.6 °C 34097 hPa Calm   3.4 km/h 82 % 0 mm
16:10 -11.9 °C -13.6 °C 34097 hPa Calm     82 % 0 mm
16:15 -12 °C -13.7 °C 34097 hPa Calm     82 % 0 mm
16:26 -12.2 °C -13.7 °C 34097 hPa Calm   4.2 km/h 83 % 0 mm
16:31 -12.2 °C -13.8 °C 34097 hPa SW 0.5 km/h 5.1 km/h 83 % 0 mm
16:36 -12.3 °C -13.8 °C 34097 hPa WSW 0.8 km/h 5.1 km/h 83 % 0 mm
16:39 -12.4 °C -13.9 °C 34097 hPa West 0.8 km/h 4.2 km/h 83 % 0 mm
16:40 -12.4 °C -13.9 °C 34097 hPa WNW 0.3 km/h 4.2 km/h 83 % 0 mm
16:46 -12.4 °C -13.9 °C 34097 hPa Calm     84 % 0 mm
16:48 -12.5 °C -13.9 °C 34097 hPa Calm     84 % 0 mm
16:53 -12.6 °C -14 °C 34097 hPa Calm     84 % 0 mm
16:54 -12.6 °C -14 °C 34097 hPa Calm     84 % 0 mm
16:59 -12.7 °C -14.1 °C 34097 hPa Calm     84 % 0 mm
17:00 -12.7 °C -14.1 °C 34097 hPa Calm     84 % 0 mm
17:06 -12.8 °C -14.2 °C 34097 hPa Calm     84 % 0 mm
17:11 -12.8 °C -14.1 °C 34097 hPa Calm     85 % 0 mm
17:14 -12.8 °C -14.2 °C 34097 hPa Calm     85 % 0 mm
17:18 -12.9 °C -14.2 °C 34097 hPa Calm     85 % 0 mm
17:24 -12.9 °C -14.2 °C 34097 hPa Calm     86 % 0 mm
17:29 -13 °C -14.2 °C 34097 hPa Calm     86 % 0 mm
17:30 -13 °C -14.2 °C 34097 hPa Calm     86 % 0 mm
17:35 -13.1 °C -14.3 °C 34097 hPa Calm     86 % 0 mm
17:36 -13.1 °C -14.3 °C 34097 hPa Calm     86 % 0 mm
17:41 -13.1 °C -14.3 °C 34097 hPa Calm     86 % 0 mm
17:44 -13.1 °C -14.3 °C 34097 hPa Calm     86 % 0 mm
17:49 -13.1 °C -14.3 °C 34097 hPa Calm     86 % 0 mm
17:52 -13.1 °C -14.3 °C 34097 hPa Calm     87 % 0 mm
17:57 -13.2 °C -14.3 °C 34097 hPa Calm     87 % 0 mm
18:00 -13.2 °C -14.3 °C 34097 hPa Calm     87 % 0 mm
18:05 -13.2 °C -14.3 °C 34097 hPa Calm     87 % 0 mm
18:07 -13.2 °C -14.3 °C 34097 hPa Calm     87 % 0 mm
18:12 -13.2 °C -14.2 °C 34097 hPa Calm     88 % 0 mm
18:14 -13.2 °C -14.2 °C 34097 hPa Calm     88 % 0 mm
18:19 -13.2 °C -14.2 °C 34097 hPa Calm     88 % 0 mm
18:24 -13.2 °C -14.2 °C 34097 hPa Calm     88 % 0 mm
18:29 -13.2 °C -14.1 °C 34097 hPa WSW 0.8 km/h 8.9 km/h 89 % 0 mm
18:35 -13.2 °C -14.1 °C 34097 hPa WSW 2.1 km/h 8.9 km/h 89 % 0 mm
18:40 -13.2 °C -14.1 °C 34097 hPa WSW 1 km/h 6.9 km/h 89 % 0 mm
18:41 -13.2 °C -14.1 °C 34097 hPa North 0.5 km/h   89 % 0 mm
18:47 -13.2 °C -14 °C 34097 hPa Calm     90 % 0 mm
18:51 -13.2 °C -14 °C 34097 hPa Calm     90 % 0 mm
18:57 -13.2 °C -14 °C 34097 hPa Calm     90 % 0 mm
19:02 -13.2 °C -14 °C 34097 hPa Calm     90 % 0 mm
19:07 -13.2 °C -13.9 °C 34097 hPa NW 0.5 km/h 3.4 km/h 91 % 0 mm
19:12 -13.2 °C -13.9 °C 34097 hPa NW 0.5 km/h 3.4 km/h 91 % 0 mm
19:17 -13.2 °C -13.9 °C 34097 hPa Calm     91 % 0 mm
19:18 -13.2 °C -13.9 °C 34097 hPa Calm     91 % 0 mm
19:23 -13.2 °C -14 °C 34097 hPa NW 0.3 km/h 4.2 km/h 91 % 0 mm
19:28 -13.2 °C -14 °C 34097 hPa NW 0.5 km/h 4.2 km/h 91 % 0 mm
19:33 -13.2 °C -14 °C 34097 hPa North 0.3 km/h   91 % 0 mm
19:34 -13.2 °C -14 °C 34097 hPa Calm     91 % 0 mm
19:37 -13.3 °C -14.1 °C 34097 hPa Calm     91 % 0 mm
19:42 -13.3 °C -13.9 °C 34130.9 hPa Calm     92 % 0 mm
19:43 -13.3 °C -13.9 °C 34130.9 hPa Calm     92 % 0 mm
19:48 -13.3 °C -14 °C 34130.9 hPa Calm     92 % 0 mm
19:50 -13.3 °C -14 °C 34130.9 hPa Calm     92 % 0 mm
19:55 -13.4 °C -14.1 °C 34130.9 hPa Calm     92 % 0 mm
20:01 -13.4 °C -14.1 °C 34130.9 hPa Calm     92 % 0 mm
20:04 -13.4 °C -14.1 °C 34130.9 hPa Calm     92 % 0 mm
20:09 -13.6 °C -14.2 °C 34130.9 hPa Calm     92 % 0 mm
20:11 -13.6 °C -14.3 °C 34130.9 hPa Calm     92 % 0 mm
20:16 -13.7 °C -14.3 °C 34130.9 hPa Calm     92 % 0 mm
20:21 -13.7 °C -14.4 °C 34130.9 hPa Calm     92 % 0 mm
20:23 -13.7 °C -14.4 °C 34130.9 hPa Calm     92 % 0 mm
20:28 -13.8 °C -14.5 °C 34130.9 hPa Calm     92 % 0 mm
20:34 -13.9 °C -14.6 °C 34130.9 hPa Calm     93 % 0 mm
20:36 -13.9 °C -14.6 °C 34130.9 hPa Calm     93 % 0 mm
20:37 -14 °C -14.6 °C 34130.9 hPa Calm     93 % 0 mm
20:43 -14.1 °C -14.6 °C 34130.9 hPa Calm     93 % 0 mm
20:48 -14.2 °C -14.8 °C 34130.9 hPa Calm     93 % 0 mm
20:53 -14.2 °C -14.8 °C 34130.9 hPa Calm     93 % 0 mm
20:56 -14.3 °C -14.8 °C 34130.9 hPa Calm     93 % 0 mm
21:00 -14.3 °C -14.8 °C 34130.9 hPa Calm     93 % 0 mm
21:05 -14.4 °C -14.9 °C 34130.9 hPa Calm     93 % 0 mm
21:07 -14.4 °C -14.9 °C 34130.9 hPa Calm     93 % 0 mm
21:09 -14.4 °C -14.9 °C 34130.9 hPa Calm     93 % 0 mm
21:14 -14.3 °C -14.9 °C 34130.9 hPa Calm     93 % 0 mm
21:17 -14.3 °C -14.8 °C 34130.9 hPa Calm     93 % 0 mm
21:22 -14.3 °C -14.8 °C 34130.9 hPa Calm     93 % 0 mm
21:25 -14.2 °C -14.8 °C 34130.9 hPa Calm     93 % 0 mm
21:30 -14.2 °C -14.8 °C 34130.9 hPa Calm     93 % 0 mm
21:37 -14.1 °C -14.6 °C 34130.9 hPa WNW 0.3 km/h 4.2 km/h 93 % 0 mm
21:42 -14 °C -14.5 °C 34130.9 hPa WNW 0.3 km/h 4.2 km/h 94 % 0 mm
21:47 -13.9 °C -14.5 °C 34130.9 hPa Calm     93 % 0 mm
21:49 -13.9 °C -14.5 °C 34130.9 hPa Calm     93 % 0 mm
21:54 -13.9 °C -14.4 °C 34130.9 hPa Calm     94 % 0 mm
21:58 -13.8 °C -14.3 °C 34130.9 hPa Calm     94 % 0 mm
21:59 -13.8 °C -14.3 °C 34130.9 hPa Calm     94 % 0 mm
22:04 -13.8 °C -14.3 °C 34130.9 hPa Calm     94 % 0 mm
22:06 -13.8 °C -14.3 °C 34130.9 hPa Calm     94 % 0 mm
22:11 -13.7 °C -14.2 °C 34130.9 hPa Calm     94 % 0 mm
22:14 -13.7 °C -14.2 °C 34130.9 hPa Calm     94 % 0 mm
22:16 -13.7 °C -14.2 °C 34130.9 hPa Calm     94 % 0 mm
22:21 -13.7 °C -14.2 °C 34130.9 hPa Calm     94 % 0 mm
22:24 -13.7 °C -14.2 °C 34130.9 hPa Calm     94 % 0 mm
22:29 -13.6 °C -14 °C 34130.9 hPa Calm     95 % 0 mm
22:30 -13.6 °C -14 °C 34130.9 hPa Calm     95 % 0 mm
22:35 -13.6 °C -14 °C 34130.9 hPa Calm     95 % 0 mm
22:37 -13.6 °C -14 °C 34130.9 hPa Calm     95 % 0 mm
22:42 -13.6 °C -14 °C 34130.9 hPa Calm     95 % 0 mm
22:43 -13.6 °C -14 °C 34130.9 hPa Calm     95 % 0 mm
22:48 -13.6 °C -14 °C 34130.9 hPa Calm     95 % 0 mm
22:49 -13.6 °C -14 °C 34130.9 hPa Calm     95 % 0 mm
22:54 -13.5 °C -13.9 °C 34130.9 hPa Calm     95 % 0 mm
22:59 -13.6 °C -14 °C 34130.9 hPa Calm     95 % 0 mm
23:02 -13.6 °C -14 °C 34130.9 hPa Calm     95 % 0 mm
23:07 -13.6 °C -14 °C 34130.9 hPa Calm     95 % 0 mm
23:12 -13.5 °C -13.9 °C 34130.9 hPa Calm     95 % 0 mm
23:15 -13.5 °C -13.9 °C 34130.9 hPa Calm     95 % 0 mm
23:20 -13.5 °C -13.9 °C 34130.9 hPa Calm     95 % 0 mm
23:24 -13.6 °C -14 °C 34130.9 hPa Calm     95 % 0 mm
23:29 -13.6 °C -14 °C 34130.9 hPa Calm     95 % 0 mm
23:30 -13.6 °C -14 °C 34130.9 hPa Calm     95 % 0 mm
23:31 -13.6 °C -14 °C 34130.9 hPa Calm     95 % 0 mm
23:36 -13.6 °C -14 °C 34130.9 hPa Calm     95 % 0 mm
23:37 -13.5 °C -13.9 °C 34130.9 hPa Calm     95 % 0 mm
23:42 -13.5 °C -13.9 °C 34130.9 hPa Calm     95 % 0 mm
23:47 -13.6 °C -13.9 °C 34130.9 hPa Calm     96 % 0 mm
23:52 -13.5 °C -13.8 °C 34130.9 hPa Calm     96 % 0 mm
23:56 -13.5 °C -13.8 °C 34130.9 hPa Calm     96 % 0 mm
Vremenska postaja Senovo
Podatki zbrani iz Weather Underground - 3.25 mb

Script developed by  Jim McMurry - jmcmurry@mwt.net Adapted for the template by  Wim van der Kuil - Leuven-Template.eu

Vremenski podatki so objavljeni na:

European Weather Network

WeatherCloud

Weather Underground

AWEKAS

HAMweather, WeatherForYou, PWS Weather

MapView

Geostik

Slovenia weather network

Oprema, ki se uporablja:

Vremenski program
Cumulus

Vremenski server
Asus

Cumulus

Asus